< Cyclone 198609 1986 Season Cyclone 198611 >
Cyclone 198610 (ALFRED)
General InformationTrack Information on Google MapsDetailed Wind InformationList of All Images || ResourceGoogle EarthGE AnimationAtom FeedGeoJSON
Detalied Best Track (Time Zone = UTC)
Year Month Day Hour Lat. Long. Pressure (hPa) Wind (kt) Class Image Chart
1986 3 2 18 -14.7 150.2 1005 20 2 Image --
1986 3 3 00 -15.0 150.1 1006 20 2 Image --
1986 3 3 06 -15.3 150.0 1004 20 2 Image --
1986 3 3 12 -15.4 150.0 1005 20 2 Image --
1986 3 3 18 -15.4 150.0 1003 20 2 Image --
1986 3 4 00 -15.4 150.0 1004 25 2 Image --
1986 3 4 06 -15.4 150.0 1003 25 2 Image --
1986 3 4 12 -15.4 150.0 1004 25 2 Image --
1986 3 4 18 -15.5 150.1 1003 25 2 Image --
1986 3 5 00 -15.7 150.5 1005 25 2 Image --
1986 3 5 06 -15.9 151.0 1004 30 2 Image --
1986 3 5 12 -16.1 151.4 1004 30 2 Image --
1986 3 5 18 -16.2 152.0 1003 30 2 Image --
1986 3 6 00 -16.3 152.7 1003 30 2 Image --
1986 3 6 06 -16.4 153.5 999 30 2 Image --
1986 3 6 12 -16.4 155.1 995 35 3 Image --
1986 3 6 18 -16.4 155.1 995 35 3 Image --
1986 3 7 00 -16.4 156.2 995 35 3 Image --
1986 3 7 06 -16.6 158.0 995 35 3 Image --
1986 3 7 12 -17.1 160.0 994 40 3 Image --
1986 3 7 18 -17.6 162.0 992 45 3 Image --
1986 3 8 00 -18.4 164.0 990 45 3 Image --
< Cyclone 198609 1986 Season Cyclone 198611 >

Help